sensor_id;sensor_type;location;lat;lon;timestamp;P1;durP1;ratioP1;P2;durP2;ratioP2
77111;SDS011;66064;50.226;14.344;2022-12-18T00:01:50;35.20;;;23.65;;
77111;SDS011;66064;50.226;14.344;2022-12-18T00:04:18;34.47;;;23.47;;
77111;SDS011;66064;50.226;14.344;2022-12-18T00:06:44;37.78;;;26.17;;
77111;SDS011;66064;50.226;14.344;2022-12-18T00:09:10;30.20;;;21.77;;
77111;SDS011;66064;50.226;14.344;2022-12-18T00:11:35;32.78;;;22.70;;
77111;SDS011;66064;50.226;14.344;2022-12-18T00:14:00;32.30;;;22.30;;
77111;SDS011;66064;50.226;14.344;2022-12-18T00:16:26;31.77;;;21.92;;
77111;SDS011;66064;50.226;14.344;2022-12-18T00:18:52;32.25;;;22.95;;
77111;SDS011;66064;50.226;14.344;2022-12-18T00:21:18;32.97;;;22.58;;
77111;SDS011;66064;50.226;14.344;2022-12-18T00:23:44;32.75;;;22.75;;
77111;SDS011;66064;50.226;14.344;2022-12-18T00:26:14;31.58;;;23.10;;
77111;SDS011;66064;50.226;14.344;2022-12-18T00:28:40;33.80;;;22.27;;
77111;SDS011;66064;50.226;14.344;2022-12-18T00:31:07;34.00;;;22.38;;
77111;SDS011;66064;50.226;14.344;2022-12-18T00:33:33;28.73;;;21.45;;
77111;SDS011;66064;50.226;14.344;2022-12-18T00:36:05;33.38;;;21.92;;
77111;SDS011;66064;50.226;14.344;2022-12-18T00:38:31;32.15;;;21.20;;
77111;SDS011;66064;50.226;14.344;2022-12-18T00:40:56;36.08;;;23.17;;
77111;SDS011;66064;50.226;14.344;2022-12-18T00:43:22;36.85;;;22.67;;
77111;SDS011;66064;50.226;14.344;2022-12-18T00:45:47;32.83;;;22.17;;
77111;SDS011;66064;50.226;14.344;2022-12-18T00:48:12;34.53;;;24.00;;
77111;SDS011;66064;50.226;14.344;2022-12-18T00:50:38;32.95;;;21.55;;
77111;SDS011;66064;50.226;14.344;2022-12-18T00:53:03;37.47;;;22.67;;
77111;SDS011;66064;50.226;14.344;2022-12-18T00:55:29;35.63;;;24.13;;
77111;SDS011;66064;50.226;14.344;2022-12-18T00:57:54;34.33;;;22.88;;
77111;SDS011;66064;50.226;14.344;2022-12-18T01:00:19;39.85;;;25.45;;
77111;SDS011;66064;50.226;14.344;2022-12-18T01:02:45;37.05;;;25.45;;
77111;SDS011;66064;50.226;14.344;2022-12-18T01:05:11;38.30;;;23.57;;
77111;SDS011;66064;50.226;14.344;2022-12-18T01:07:37;41.35;;;24.70;;
77111;SDS011;66064;50.226;14.344;2022-12-18T01:10:02;42.60;;;24.83;;
77111;SDS011;66064;50.226;14.344;2022-12-18T01:12:28;41.08;;;24.35;;
77111;SDS011;66064;50.226;14.344;2022-12-18T01:14:53;37.92;;;23.40;;
77111;SDS011;66064;50.226;14.344;2022-12-18T01:17:18;39.97;;;24.27;;
77111;SDS011;66064;50.226;14.344;2022-12-18T01:19:44;44.53;;;25.27;;
77111;SDS011;66064;50.226;14.344;2022-12-18T01:22:09;39.28;;;24.85;;
77111;SDS011;66064;50.226;14.344;2022-12-18T01:24:34;42.67;;;24.58;;
77111;SDS011;66064;50.226;14.344;2022-12-18T01:26:59;46.22;;;24.50;;
77111;SDS011;66064;50.226;14.344;2022-12-18T01:29:25;46.00;;;25.13;;
77111;SDS011;66064;50.226;14.344;2022-12-18T01:31:50;45.30;;;26.38;;
77111;SDS011;66064;50.226;14.344;2022-12-18T01:34:16;43.97;;;26.52;;
77111;SDS011;66064;50.226;14.344;2022-12-18T01:36:41;45.55;;;25.45;;
77111;SDS011;66064;50.226;14.344;2022-12-18T01:39:08;48.13;;;26.43;;
77111;SDS011;66064;50.226;14.344;2022-12-18T01:41:34;50.83;;;29.05;;
77111;SDS011;66064;50.226;14.344;2022-12-18T01:47:03;58.92;;;29.48;;
77111;SDS011;66064;50.226;14.344;2022-12-18T01:49:28;56.10;;;30.27;;
77111;SDS011;66064;50.226;14.344;2022-12-18T01:51:53;64.57;;;31.70;;
77111;SDS011;66064;50.226;14.344;2022-12-18T01:54:19;58.83;;;29.83;;
77111;SDS011;66064;50.226;14.344;2022-12-18T01:56:44;59.60;;;33.13;;
77111;SDS011;66064;50.226;14.344;2022-12-18T01:59:10;57.03;;;30.80;;
77111;SDS011;66064;50.226;14.344;2022-12-18T02:01:36;60.75;;;29.45;;
77111;SDS011;66064;50.226;14.344;2022-12-18T02:04:25;64.35;;;31.45;;
77111;SDS011;66064;50.226;14.344;2022-12-18T02:06:51;63.05;;;30.13;;
77111;SDS011;66064;50.226;14.344;2022-12-18T02:09:21;59.30;;;31.33;;
77111;SDS011;66064;50.226;14.344;2022-12-18T02:14:16;59.28;;;33.08;;
77111;SDS011;66064;50.226;14.344;2022-12-18T02:24:39;65.70;;;32.83;;
77111;SDS011;66064;50.226;14.344;2022-12-18T02:27:07;60.67;;;31.25;;
77111;SDS011;66064;50.226;14.344;2022-12-18T02:31:59;62.97;;;33.43;;
77111;SDS011;66064;50.226;14.344;2022-12-18T02:34:29;66.05;;;34.05;;
77111;SDS011;66064;50.226;14.344;2022-12-18T02:36:54;66.25;;;33.78;;
77111;SDS011;66064;50.226;14.344;2022-12-18T02:39:20;69.40;;;32.50;;
77111;SDS011;66064;50.226;14.344;2022-12-18T02:41:46;69.25;;;34.33;;
77111;SDS011;66064;50.226;14.344;2022-12-18T02:44:13;66.40;;;34.70;;
77111;SDS011;66064;50.226;14.344;2022-12-18T02:51:55;65.63;;;33.03;;
77111;SDS011;66064;50.226;14.344;2022-12-18T02:54:24;67.32;;;33.60;;
77111;SDS011;66064;50.226;14.344;2022-12-18T02:56:54;66.95;;;33.65;;
77111;SDS011;66064;50.226;14.344;2022-12-18T02:59:30;65.05;;;33.65;;
77111;SDS011;66064;50.226;14.344;2022-12-18T03:07:15;60.10;;;33.22;;
77111;SDS011;66064;50.226;14.344;2022-12-18T03:09:43;59.70;;;32.20;;
77111;SDS011;66064;50.226;14.344;2022-12-18T03:17:30;59.55;;;35.17;;
77111;SDS011;66064;50.226;14.344;2022-12-18T03:19:56;60.00;;;32.63;;
77111;SDS011;66064;50.226;14.344;2022-12-18T03:22:23;63.33;;;35.88;;
77111;SDS011;66064;50.226;14.344;2022-12-18T03:24:49;56.78;;;33.15;;
77111;SDS011;66064;50.226;14.344;2022-12-18T03:27:17;62.45;;;32.55;;
77111;SDS011;66064;50.226;14.344;2022-12-18T03:29:47;60.50;;;31.98;;
77111;SDS011;66064;50.226;14.344;2022-12-18T03:32:19;60.20;;;33.95;;
77111;SDS011;66064;50.226;14.344;2022-12-18T03:34:46;60.67;;;31.92;;
77111;SDS011;66064;50.226;14.344;2022-12-18T03:37:13;60.25;;;32.13;;
77111;SDS011;66064;50.226;14.344;2022-12-18T03:39:39;56.88;;;31.77;;
77111;SDS011;66064;50.226;14.344;2022-12-18T03:49:25;56.25;;;32.70;;
77111;SDS011;66064;50.226;14.344;2022-12-18T03:51:53;57.63;;;30.83;;
77111;SDS011;66064;50.226;14.344;2022-12-18T03:54:19;55.95;;;31.67;;
77111;SDS011;66064;50.226;14.344;2022-12-18T03:56:46;59.35;;;29.90;;
77111;SDS011;66064;50.226;14.344;2022-12-18T03:59:13;59.53;;;31.60;;
77111;SDS011;66064;50.226;14.344;2022-12-18T04:01:41;57.45;;;32.95;;
77111;SDS011;66064;50.226;14.344;2022-12-18T04:04:08;57.30;;;31.73;;
77111;SDS011;66064;50.226;14.344;2022-12-18T04:06:34;58.53;;;32.80;;
77111;SDS011;66064;50.226;14.344;2022-12-18T04:09:00;54.08;;;32.78;;
77111;SDS011;66064;50.226;14.344;2022-12-18T04:11:26;55.75;;;35.47;;
77111;SDS011;66064;50.226;14.344;2022-12-18T04:13:54;55.92;;;30.95;;
77111;SDS011;66064;50.226;14.344;2022-12-18T04:16:20;57.05;;;32.35;;
77111;SDS011;66064;50.226;14.344;2022-12-18T04:18:45;54.97;;;31.50;;
77111;SDS011;66064;50.226;14.344;2022-12-18T04:21:10;52.13;;;29.90;;
77111;SDS011;66064;50.226;14.344;2022-12-18T04:23:36;55.33;;;31.73;;
77111;SDS011;66064;50.226;14.344;2022-12-18T04:26:01;51.72;;;30.80;;
77111;SDS011;66064;50.226;14.344;2022-12-18T04:28:26;55.83;;;31.77;;
77111;SDS011;66064;50.226;14.344;2022-12-18T04:30:51;49.45;;;30.90;;
77111;SDS011;66064;50.226;14.344;2022-12-18T04:33:17;51.40;;;30.42;;
77111;SDS011;66064;50.226;14.344;2022-12-18T04:35:42;53.23;;;29.70;;
77111;SDS011;66064;50.226;14.344;2022-12-18T04:38:08;55.25;;;32.33;;
77111;SDS011;66064;50.226;14.344;2022-12-18T04:40:34;57.85;;;33.33;;
77111;SDS011;66064;50.226;14.344;2022-12-18T04:42:59;54.60;;;32.00;;
77111;SDS011;66064;50.226;14.344;2022-12-18T04:45:24;55.03;;;31.33;;
77111;SDS011;66064;50.226;14.344;2022-12-18T04:47:49;56.27;;;30.43;;
77111;SDS011;66064;50.226;14.344;2022-12-18T04:50:15;56.70;;;30.83;;
77111;SDS011;66064;50.226;14.344;2022-12-18T04:52:40;53.00;;;30.42;;
77111;SDS011;66064;50.226;14.344;2022-12-18T04:55:05;56.38;;;32.90;;
77111;SDS011;66064;50.226;14.344;2022-12-18T04:57:30;50.97;;;31.23;;
77111;SDS011;66064;50.226;14.344;2022-12-18T04:59:56;55.47;;;30.97;;
77111;SDS011;66064;50.226;14.344;2022-12-18T05:02:21;51.45;;;28.88;;
77111;SDS011;66064;50.226;14.344;2022-12-18T05:04:46;47.75;;;30.30;;
77111;SDS011;66064;50.226;14.344;2022-12-18T05:07:12;54.70;;;31.55;;
77111;SDS011;66064;50.226;14.344;2022-12-18T05:09:37;49.92;;;33.65;;
77111;SDS011;66064;50.226;14.344;2022-12-18T05:12:02;51.70;;;33.45;;
77111;SDS011;66064;50.226;14.344;2022-12-18T05:14:28;52.70;;;31.13;;
77111;SDS011;66064;50.226;14.344;2022-12-18T05:16:54;49.35;;;29.27;;
77111;SDS011;66064;50.226;14.344;2022-12-18T05:19:19;55.65;;;31.63;;
77111;SDS011;66064;50.226;14.344;2022-12-18T05:21:45;57.17;;;31.42;;
77111;SDS011;66064;50.226;14.344;2022-12-18T05:24:10;52.63;;;30.75;;
77111;SDS011;66064;50.226;14.344;2022-12-18T05:26:35;50.67;;;30.13;;
77111;SDS011;66064;50.226;14.344;2022-12-18T05:29:00;51.50;;;30.17;;
77111;SDS011;66064;50.226;14.344;2022-12-18T05:31:26;52.28;;;30.92;;
77111;SDS011;66064;50.226;14.344;2022-12-18T05:33:51;48.67;;;31.42;;
77111;SDS011;66064;50.226;14.344;2022-12-18T05:36:16;49.63;;;30.15;;
77111;SDS011;66064;50.226;14.344;2022-12-18T05:38:42;49.50;;;28.88;;
77111;SDS011;66064;50.226;14.344;2022-12-18T05:41:08;48.83;;;29.73;;
77111;SDS011;66064;50.226;14.344;2022-12-18T05:43:34;49.92;;;27.73;;
77111;SDS011;66064;50.226;14.344;2022-12-18T05:46:03;48.30;;;29.13;;
77111;SDS011;66064;50.226;14.344;2022-12-18T05:48:28;47.97;;;30.58;;
77111;SDS011;66064;50.226;14.344;2022-12-18T05:50:54;49.95;;;28.95;;
77111;SDS011;66064;50.226;14.344;2022-12-18T05:53:19;49.15;;;30.50;;
77111;SDS011;66064;50.226;14.344;2022-12-18T05:55:45;49.30;;;29.38;;
77111;SDS011;66064;50.226;14.344;2022-12-18T05:58:11;49.90;;;29.15;;
77111;SDS011;66064;50.226;14.344;2022-12-18T06:00:39;51.35;;;33.80;;
77111;SDS011;66064;50.226;14.344;2022-12-18T06:03:05;48.95;;;29.27;;
77111;SDS011;66064;50.226;14.344;2022-12-18T06:05:34;49.95;;;29.58;;
77111;SDS011;66064;50.226;14.344;2022-12-18T06:07:59;49.33;;;28.70;;
77111;SDS011;66064;50.226;14.344;2022-12-18T06:10:25;49.73;;;29.37;;
77111;SDS011;66064;50.226;14.344;2022-12-18T06:12:50;48.30;;;29.02;;
77111;SDS011;66064;50.226;14.344;2022-12-18T06:15:15;48.20;;;30.58;;
77111;SDS011;66064;50.226;14.344;2022-12-18T06:17:41;47.17;;;30.25;;
77111;SDS011;66064;50.226;14.344;2022-12-18T06:20:06;47.58;;;30.40;;
77111;SDS011;66064;50.226;14.344;2022-12-18T06:22:32;47.13;;;28.48;;
77111;SDS011;66064;50.226;14.344;2022-12-18T06:24:57;56.05;;;33.47;;
77111;SDS011;66064;50.226;14.344;2022-12-18T06:27:22;46.75;;;27.08;;
77111;SDS011;66064;50.226;14.344;2022-12-18T06:29:48;47.53;;;29.35;;
77111;SDS011;66064;50.226;14.344;2022-12-18T06:32:13;44.60;;;29.45;;
77111;SDS011;66064;50.226;14.344;2022-12-18T06:34:38;45.37;;;28.23;;
77111;SDS011;66064;50.226;14.344;2022-12-18T06:37:04;44.45;;;28.75;;
77111;SDS011;66064;50.226;14.344;2022-12-18T06:39:29;45.60;;;28.73;;
77111;SDS011;66064;50.226;14.344;2022-12-18T06:41:54;44.03;;;28.38;;
77111;SDS011;66064;50.226;14.344;2022-12-18T06:44:20;44.40;;;27.38;;
77111;SDS011;66064;50.226;14.344;2022-12-18T06:46:45;45.25;;;28.25;;
77111;SDS011;66064;50.226;14.344;2022-12-18T06:49:10;46.50;;;28.40;;
77111;SDS011;66064;50.226;14.344;2022-12-18T06:51:36;46.05;;;28.15;;
77111;SDS011;66064;50.226;14.344;2022-12-18T06:54:01;43.97;;;26.20;;
77111;SDS011;66064;50.226;14.344;2022-12-18T06:56:27;42.63;;;27.38;;
77111;SDS011;66064;50.226;14.344;2022-12-18T06:58:53;41.97;;;29.45;;
77111;SDS011;66064;50.226;14.344;2022-12-18T07:01:18;41.45;;;26.83;;
77111;SDS011;66064;50.226;14.344;2022-12-18T07:03:43;44.78;;;29.55;;
77111;SDS011;66064;50.226;14.344;2022-12-18T07:06:15;44.17;;;27.02;;
77111;SDS011;66064;50.226;14.344;2022-12-18T07:08:41;40.72;;;26.55;;
77111;SDS011;66064;50.226;14.344;2022-12-18T07:11:06;47.72;;;28.50;;
77111;SDS011;66064;50.226;14.344;2022-12-18T07:13:31;47.57;;;29.57;;
77111;SDS011;66064;50.226;14.344;2022-12-18T07:16:03;47.17;;;28.48;;
77111;SDS011;66064;50.226;14.344;2022-12-18T07:18:28;48.53;;;31.38;;
77111;SDS011;66064;50.226;14.344;2022-12-18T07:20:53;44.08;;;28.77;;
77111;SDS011;66064;50.226;14.344;2022-12-18T07:23:19;43.00;;;27.17;;
77111;SDS011;66064;50.226;14.344;2022-12-18T07:25:44;42.78;;;26.13;;
77111;SDS011;66064;50.226;14.344;2022-12-18T07:28:09;47.45;;;29.00;;
77111;SDS011;66064;50.226;14.344;2022-12-18T07:30:36;42.20;;;28.63;;
77111;SDS011;66064;50.226;14.344;2022-12-18T07:33:02;40.33;;;26.33;;
77111;SDS011;66064;50.226;14.344;2022-12-18T07:35:27;44.25;;;27.15;;
77111;SDS011;66064;50.226;14.344;2022-12-18T07:37:52;44.30;;;28.08;;
77111;SDS011;66064;50.226;14.344;2022-12-18T07:40:17;42.97;;;28.00;;
77111;SDS011;66064;50.226;14.344;2022-12-18T07:42:43;42.30;;;26.20;;
77111;SDS011;66064;50.226;14.344;2022-12-18T07:45:08;44.85;;;27.73;;
77111;SDS011;66064;50.226;14.344;2022-12-18T07:47:34;39.92;;;26.00;;
77111;SDS011;66064;50.226;14.344;2022-12-18T07:50:01;42.15;;;28.20;;
77111;SDS011;66064;50.226;14.344;2022-12-18T07:52:26;44.78;;;29.60;;
77111;SDS011;66064;50.226;14.344;2022-12-18T07:54:51;39.65;;;29.33;;
77111;SDS011;66064;50.226;14.344;2022-12-18T07:57:17;44.25;;;28.10;;
77111;SDS011;66064;50.226;14.344;2022-12-18T07:59:42;43.33;;;29.48;;
77111;SDS011;66064;50.226;14.344;2022-12-18T08:02:08;42.70;;;27.92;;
77111;SDS011;66064;50.226;14.344;2022-12-18T08:04:33;43.38;;;28.48;;
77111;SDS011;66064;50.226;14.344;2022-12-18T08:06:59;45.90;;;29.65;;
77111;SDS011;66064;50.226;14.344;2022-12-18T08:09:25;43.97;;;28.60;;
77111;SDS011;66064;50.226;14.344;2022-12-18T08:11:50;41.25;;;27.23;;
77111;SDS011;66064;50.226;14.344;2022-12-18T08:14:15;40.47;;;27.05;;
77111;SDS011;66064;50.226;14.344;2022-12-18T08:16:41;40.53;;;26.85;;
77111;SDS011;66064;50.226;14.344;2022-12-18T08:19:06;38.78;;;28.70;;
77111;SDS011;66064;50.226;14.344;2022-12-18T08:21:32;37.58;;;26.23;;
77111;SDS011;66064;50.226;14.344;2022-12-18T08:23:58;36.05;;;25.85;;
77111;SDS011;66064;50.226;14.344;2022-12-18T08:26:25;38.45;;;26.90;;
77111;SDS011;66064;50.226;14.344;2022-12-18T08:28:50;38.58;;;25.10;;
77111;SDS011;66064;50.226;14.344;2022-12-18T08:31:16;36.80;;;25.35;;
77111;SDS011;66064;50.226;14.344;2022-12-18T08:33:41;35.20;;;24.10;;
77111;SDS011;66064;50.226;14.344;2022-12-18T08:36:08;37.60;;;25.67;;
77111;SDS011;66064;50.226;14.344;2022-12-18T08:38:33;35.05;;;26.17;;
77111;SDS011;66064;50.226;14.344;2022-12-18T08:40:59;34.53;;;24.05;;
77111;SDS011;66064;50.226;14.344;2022-12-18T08:43:25;33.38;;;24.00;;
77111;SDS011;66064;50.226;14.344;2022-12-18T08:46:09;35.40;;;25.55;;
77111;SDS011;66064;50.226;14.344;2022-12-18T08:48:34;37.30;;;25.60;;
77111;SDS011;66064;50.226;14.344;2022-12-18T08:50:59;32.55;;;23.40;;
77111;SDS011;66064;50.226;14.344;2022-12-18T08:53:25;39.25;;;24.83;;
77111;SDS011;66064;50.226;14.344;2022-12-18T08:55:51;55.50;;;28.70;;
77111;SDS011;66064;50.226;14.344;2022-12-18T08:58:16;54.45;;;26.70;;
77111;SDS011;66064;50.226;14.344;2022-12-18T09:00:41;47.37;;;25.27;;
77111;SDS011;66064;50.226;14.344;2022-12-18T09:03:13;47.33;;;24.60;;
77111;SDS011;66064;50.226;14.344;2022-12-18T09:05:39;41.85;;;22.38;;
77111;SDS011;66064;50.226;14.344;2022-12-18T09:08:04;38.97;;;23.98;;
77111;SDS011;66064;50.226;14.344;2022-12-18T09:11:25;35.53;;;23.63;;
77111;SDS011;66064;50.226;14.344;2022-12-18T09:13:51;40.70;;;23.20;;
77111;SDS011;66064;50.226;14.344;2022-12-18T09:16:17;38.45;;;22.90;;
77111;SDS011;66064;50.226;14.344;2022-12-18T09:18:42;37.95;;;23.23;;
77111;SDS011;66064;50.226;14.344;2022-12-18T09:21:09;39.45;;;20.48;;
77111;SDS011;66064;50.226;14.344;2022-12-18T09:23:34;33.05;;;21.88;;
77111;SDS011;66064;50.226;14.344;2022-12-18T09:25:59;36.30;;;21.20;;
77111;SDS011;66064;50.226;14.344;2022-12-18T09:28:25;34.97;;;21.40;;
77111;SDS011;66064;50.226;14.344;2022-12-18T09:30:50;34.45;;;20.25;;
77111;SDS011;66064;50.226;14.344;2022-12-18T09:33:16;42.47;;;22.83;;
77111;SDS011;66064;50.226;14.344;2022-12-18T09:35:42;39.13;;;23.30;;
77111;SDS011;66064;50.226;14.344;2022-12-18T09:38:18;42.17;;;24.63;;
77111;SDS011;66064;50.226;14.344;2022-12-18T09:40:48;32.00;;;23.40;;
77111;SDS011;66064;50.226;14.344;2022-12-18T09:43:17;34.75;;;22.63;;
77111;SDS011;66064;50.226;14.344;2022-12-18T09:45:44;33.70;;;22.45;;
77111;SDS011;66064;50.226;14.344;2022-12-18T09:48:25;34.58;;;21.65;;
77111;SDS011;66064;50.226;14.344;2022-12-18T09:50:51;36.38;;;20.65;;
77111;SDS011;66064;50.226;14.344;2022-12-18T09:53:21;26.58;;;19.10;;
77111;SDS011;66064;50.226;14.344;2022-12-18T09:55:49;30.63;;;20.45;;
77111;SDS011;66064;50.226;14.344;2022-12-18T09:58:20;32.63;;;20.92;;
77111;SDS011;66064;50.226;14.344;2022-12-18T10:00:51;32.10;;;20.35;;
77111;SDS011;66064;50.226;14.344;2022-12-18T10:03:16;30.42;;;20.92;;
77111;SDS011;66064;50.226;14.344;2022-12-18T10:08:33;26.75;;;17.88;;
77111;SDS011;66064;50.226;14.344;2022-12-18T10:11:10;25.98;;;17.08;;
77111;SDS011;66064;50.226;14.344;2022-12-18T10:13:44;26.00;;;17.80;;
77111;SDS011;66064;50.226;14.344;2022-12-18T10:16:19;26.45;;;16.70;;
77111;SDS011;66064;50.226;14.344;2022-12-18T10:21:18;25.88;;;17.65;;
77111;SDS011;66064;50.226;14.344;2022-12-18T10:26:28;24.48;;;17.58;;
77111;SDS011;66064;50.226;14.344;2022-12-18T10:28:53;22.98;;;16.35;;
77111;SDS011;66064;50.226;14.344;2022-12-18T10:31:19;26.10;;;18.23;;
77111;SDS011;66064;50.226;14.344;2022-12-18T10:33:46;23.83;;;18.17;;
77111;SDS011;66064;50.226;14.344;2022-12-18T10:36:11;24.73;;;18.08;;
77111;SDS011;66064;50.226;14.344;2022-12-18T10:38:36;26.35;;;17.88;;
77111;SDS011;66064;50.226;14.344;2022-12-18T10:41:44;27.40;;;18.38;;
77111;SDS011;66064;50.226;14.344;2022-12-18T10:44:14;24.63;;;15.50;;
77111;SDS011;66064;50.226;14.344;2022-12-18T10:46:40;28.48;;;19.10;;
77111;SDS011;66064;50.226;14.344;2022-12-18T10:49:17;25.10;;;19.02;;
77111;SDS011;66064;50.226;14.344;2022-12-18T10:51:43;26.02;;;19.25;;
77111;SDS011;66064;50.226;14.344;2022-12-18T10:54:15;27.27;;;19.00;;
77111;SDS011;66064;50.226;14.344;2022-12-18T10:56:41;31.63;;;17.42;;
77111;SDS011;66064;50.226;14.344;2022-12-18T10:59:08;25.50;;;17.77;;
77111;SDS011;66064;50.226;14.344;2022-12-18T11:01:53;26.42;;;17.85;;
77111;SDS011;66064;50.226;14.344;2022-12-18T11:04:29;26.60;;;18.55;;
77111;SDS011;66064;50.226;14.344;2022-12-18T11:09:24;24.42;;;17.77;;
77111;SDS011;66064;50.226;14.344;2022-12-18T11:11:51;27.05;;;18.98;;
77111;SDS011;66064;50.226;14.344;2022-12-18T11:14:20;26.50;;;17.77;;
77111;SDS011;66064;50.226;14.344;2022-12-18T11:19:19;20.37;;;13.57;;
77111;SDS011;66064;50.226;14.344;2022-12-18T11:21:46;23.80;;;16.50;;
77111;SDS011;66064;50.226;14.344;2022-12-18T11:24:31;21.05;;;15.15;;
77111;SDS011;66064;50.226;14.344;2022-12-18T11:26:57;26.15;;;15.75;;
77111;SDS011;66064;50.226;14.344;2022-12-18T11:29:27;23.60;;;17.05;;
77111;SDS011;66064;50.226;14.344;2022-12-18T11:32:07;25.10;;;15.48;;
77111;SDS011;66064;50.226;14.344;2022-12-18T11:34:37;21.27;;;14.30;;
77111;SDS011;66064;50.226;14.344;2022-12-18T11:37:03;24.90;;;15.57;;
77111;SDS011;66064;50.226;14.344;2022-12-18T11:42:01;35.72;;;24.73;;
77111;SDS011;66064;50.226;14.344;2022-12-18T11:44:40;32.53;;;20.50;;
77111;SDS011;66064;50.226;14.344;2022-12-18T11:47:13;33.00;;;21.63;;
77111;SDS011;66064;50.226;14.344;2022-12-18T11:49:40;25.85;;;17.90;;
77111;SDS011;66064;50.226;14.344;2022-12-18T11:52:23;30.23;;;18.30;;
77111;SDS011;66064;50.226;14.344;2022-12-18T11:54:55;28.45;;;18.15;;
77111;SDS011;66064;50.226;14.344;2022-12-18T12:08:42;48.65;;;39.20;;
77111;SDS011;66064;50.226;14.344;2022-12-18T12:11:20;49.25;;;34.60;;
77111;SDS011;66064;50.226;14.344;2022-12-18T12:21:53;39.83;;;31.88;;
77111;SDS011;66064;50.226;14.344;2022-12-18T12:24:30;39.58;;;35.45;;
77111;SDS011;66064;50.226;14.344;2022-12-18T12:27:03;38.10;;;32.90;;
77111;SDS011;66064;50.226;14.344;2022-12-18T12:34:34;27.95;;;25.42;;
77111;SDS011;66064;50.226;14.344;2022-12-18T12:39:43;37.25;;;32.80;;
77111;SDS011;66064;50.226;14.344;2022-12-18T12:42:14;29.25;;;26.88;;
77111;SDS011;66064;50.226;14.344;2022-12-18T12:47:29;44.92;;;36.20;;
77111;SDS011;66064;50.226;14.344;2022-12-18T12:49:56;33.95;;;31.20;;
77111;SDS011;66064;50.226;14.344;2022-12-18T12:54:54;45.40;;;38.90;;
77111;SDS011;66064;50.226;14.344;2022-12-18T13:00:03;34.75;;;31.10;;
77111;SDS011;66064;50.226;14.344;2022-12-18T13:10:41;34.22;;;31.35;;
77111;SDS011;66064;50.226;14.344;2022-12-18T13:13:10;30.00;;;27.67;;
77111;SDS011;66064;50.226;14.344;2022-12-18T13:20:40;33.45;;;30.20;;
77111;SDS011;66064;50.226;14.344;2022-12-18T13:23:19;28.15;;;26.27;;
77111;SDS011;66064;50.226;14.344;2022-12-18T13:28:15;38.80;;;35.90;;
77111;SDS011;66064;50.226;14.344;2022-12-18T13:30:42;52.15;;;47.92;;
77111;SDS011;66064;50.226;14.344;2022-12-18T13:38:20;40.90;;;37.38;;
77111;SDS011;66064;50.226;14.344;2022-12-18T13:45:43;33.50;;;30.95;;
77111;SDS011;66064;50.226;14.344;2022-12-18T13:48:17;30.65;;;28.48;;
77111;SDS011;66064;50.226;14.344;2022-12-18T13:50:43;42.72;;;38.22;;
77111;SDS011;66064;50.226;14.344;2022-12-18T13:53:18;41.08;;;37.47;;
77111;SDS011;66064;50.226;14.344;2022-12-18T13:55:45;36.35;;;33.67;;
77111;SDS011;66064;50.226;14.344;2022-12-18T13:58:11;39.42;;;33.35;;
77111;SDS011;66064;50.226;14.344;2022-12-18T14:00:40;34.05;;;30.65;;
77111;SDS011;66064;50.226;14.344;2022-12-18T14:03:15;42.00;;;33.30;;
77111;SDS011;66064;50.226;14.344;2022-12-18T14:05:42;48.75;;;36.05;;
77111;SDS011;66064;50.226;14.344;2022-12-18T14:08:18;37.00;;;29.15;;
77111;SDS011;66064;50.226;14.344;2022-12-18T14:10:44;45.92;;;35.40;;
77111;SDS011;66064;50.226;14.344;2022-12-18T14:13:10;50.58;;;37.35;;
77111;SDS011;66064;50.226;14.344;2022-12-18T14:15:43;41.85;;;32.28;;
77111;SDS011;66064;50.226;14.344;2022-12-18T14:18:31;51.95;;;39.70;;
77111;SDS011;66064;50.226;14.344;2022-12-18T14:20:59;67.07;;;47.65;;
77111;SDS011;66064;50.226;14.344;2022-12-18T14:25:50;39.97;;;33.72;;
77111;SDS011;66064;50.226;14.344;2022-12-18T14:28:15;36.63;;;33.00;;
77111;SDS011;66064;50.226;14.344;2022-12-18T14:30:42;44.63;;;37.50;;
77111;SDS011;66064;50.226;14.344;2022-12-18T14:33:11;42.70;;;35.40;;
77111;SDS011;66064;50.226;14.344;2022-12-18T14:35:38;40.63;;;31.63;;
77111;SDS011;66064;50.226;14.344;2022-12-18T14:38:14;35.55;;;32.10;;
77111;SDS011;66064;50.226;14.344;2022-12-18T14:40:43;34.58;;;30.02;;
77111;SDS011;66064;50.226;14.344;2022-12-18T14:43:10;47.75;;;35.33;;
77111;SDS011;66064;50.226;14.344;2022-12-18T14:45:44;44.83;;;31.95;;
77111;SDS011;66064;50.226;14.344;2022-12-18T14:50:38;32.08;;;29.08;;
77111;SDS011;66064;50.226;14.344;2022-12-18T14:53:03;35.70;;;32.13;;
77111;SDS011;66064;50.226;14.344;2022-12-18T14:55:29;30.00;;;26.83;;
77111;SDS011;66064;50.226;14.344;2022-12-18T14:58:01;34.22;;;30.83;;
77111;SDS011;66064;50.226;14.344;2022-12-18T15:03:30;47.85;;;31.77;;
77111;SDS011;66064;50.226;14.344;2022-12-18T15:05:56;51.42;;;46.22;;
77111;SDS011;66064;50.226;14.344;2022-12-18T15:14:45;56.92;;;40.13;;
77111;SDS011;66064;50.226;14.344;2022-12-18T15:17:17;51.92;;;37.65;;
77111;SDS011;66064;50.226;14.344;2022-12-18T15:19:44;51.10;;;44.50;;
77111;SDS011;66064;50.226;14.344;2022-12-18T15:24:45;59.17;;;45.42;;
77111;SDS011;66064;50.226;14.344;2022-12-18T15:27:20;56.70;;;38.70;;
77111;SDS011;66064;50.226;14.344;2022-12-18T15:29:59;57.03;;;42.15;;
77111;SDS011;66064;50.226;14.344;2022-12-18T15:32:24;66.82;;;49.90;;
77111;SDS011;66064;50.226;14.344;2022-12-18T15:34:50;78.50;;;55.40;;
77111;SDS011;66064;50.226;14.344;2022-12-18T15:37:15;62.63;;;45.75;;
77111;SDS011;66064;50.226;14.344;2022-12-18T15:39:41;50.38;;;39.38;;
77111;SDS011;66064;50.226;14.344;2022-12-18T15:42:08;55.25;;;44.80;;
77111;SDS011;66064;50.226;14.344;2022-12-18T15:44:51;34.15;;;30.75;;
77111;SDS011;66064;50.226;14.344;2022-12-18T15:47:17;46.40;;;36.83;;
77111;SDS011;66064;50.226;14.344;2022-12-18T15:49:42;48.47;;;36.60;;
77111;SDS011;66064;50.226;14.344;2022-12-18T15:52:08;41.90;;;37.65;;
77111;SDS011;66064;50.226;14.344;2022-12-18T15:54:37;36.08;;;30.30;;
77111;SDS011;66064;50.226;14.344;2022-12-18T15:57:21;45.05;;;34.10;;
77111;SDS011;66064;50.226;14.344;2022-12-18T15:59:49;45.50;;;34.00;;
77111;SDS011;66064;50.226;14.344;2022-12-18T16:02:18;41.13;;;30.85;;
77111;SDS011;66064;50.226;14.344;2022-12-18T16:04:43;49.28;;;39.63;;
77111;SDS011;66064;50.226;14.344;2022-12-18T16:07:10;50.38;;;37.03;;
77111;SDS011;66064;50.226;14.344;2022-12-18T16:09:36;63.03;;;56.47;;
77111;SDS011;66064;50.226;14.344;2022-12-18T16:12:01;56.50;;;49.28;;
77111;SDS011;66064;50.226;14.344;2022-12-18T16:14:28;69.95;;;41.83;;
77111;SDS011;66064;50.226;14.344;2022-12-18T16:16:55;58.05;;;46.08;;
77111;SDS011;66064;50.226;14.344;2022-12-18T16:19:21;38.88;;;34.63;;
77111;SDS011;66064;50.226;14.344;2022-12-18T16:21:46;47.65;;;41.45;;
77111;SDS011;66064;50.226;14.344;2022-12-18T16:24:24;61.45;;;49.72;;